sensor_id;sensor_type;location;lat;lon;timestamp;pressure;altitude;pressure_sealevel;temperature;humidity
63907;BME280;50075;49.484;11.238;2022-12-29T00:01:54;97536.63;;;10.23;100.00
63907;BME280;50075;49.484;11.238;2022-12-29T00:04:21;97545.41;;;10.08;100.00
63907;BME280;50075;49.484;11.238;2022-12-29T00:06:46;97543.97;;;10.71;100.00
63907;BME280;50075;49.484;11.238;2022-12-29T00:09:15;97536.72;;;10.98;100.00
63907;BME280;50075;49.484;11.238;2022-12-29T00:11:40;97536.00;;;10.87;100.00
63907;BME280;50075;49.484;11.238;2022-12-29T00:14:08;97531.47;;;11.01;100.00
63907;BME280;50075;49.484;11.238;2022-12-29T00:16:52;97540.78;;;11.84;100.00
63907;BME280;50075;49.484;11.238;2022-12-29T00:19:18;97518.91;;;10.64;100.00
63907;BME280;50075;49.484;11.238;2022-12-29T00:22:02;97539.22;;;11.06;100.00
63907;BME280;50075;49.484;11.238;2022-12-29T00:24:46;97522.13;;;10.85;100.00
63907;BME280;50075;49.484;11.238;2022-12-29T00:27:31;97531.09;;;10.60;100.00
63907;BME280;50075;49.484;11.238;2022-12-29T00:30:18;97532.78;;;11.33;100.00
63907;BME280;50075;49.484;11.238;2022-12-29T00:33:16;97520.69;;;10.62;100.00
63907;BME280;50075;49.484;11.238;2022-12-29T00:36:07;97526.00;;;10.48;100.00
63907;BME280;50075;49.484;11.238;2022-12-29T00:38:36;97521.31;;;10.83;100.00
63907;BME280;50075;49.484;11.238;2022-12-29T00:41:21;97516.09;;;11.47;100.00
63907;BME280;50075;49.484;11.238;2022-12-29T00:44:08;97512.97;;;11.83;100.00
63907;BME280;50075;49.484;11.238;2022-12-29T00:46:40;97518.75;;;10.79;100.00
63907;BME280;50075;49.484;11.238;2022-12-29T00:49:07;97506.34;;;11.00;100.00
63907;BME280;50075;49.484;11.238;2022-12-29T00:51:53;97515.91;;;11.61;100.00
63907;BME280;50075;49.484;11.238;2022-12-29T00:54:19;97502.59;;;11.22;100.00
63907;BME280;50075;49.484;11.238;2022-12-29T00:56:49;97518.44;;;11.67;100.00
63907;BME280;50075;49.484;11.238;2022-12-29T00:59:15;97509.16;;;11.49;100.00
63907;BME280;50075;49.484;11.238;2022-12-29T01:01:41;97503.31;;;11.31;100.00
63907;BME280;50075;49.484;11.238;2022-12-29T01:04:07;97507.22;;;10.99;100.00
63907;BME280;50075;49.484;11.238;2022-12-29T01:06:34;97505.28;;;11.75;100.00
63907;BME280;50075;49.484;11.238;2022-12-29T01:09:00;97497.94;;;11.99;100.00
63907;BME280;50075;49.484;11.238;2022-12-29T01:11:44;97492.38;;;11.67;100.00
63907;BME280;50075;49.484;11.238;2022-12-29T01:14:09;97502.13;;;10.90;100.00
63907;BME280;50075;49.484;11.238;2022-12-29T01:16:34;97504.28;;;10.55;100.00
63907;BME280;50075;49.484;11.238;2022-12-29T01:19:02;97499.84;;;10.65;100.00
63907;BME280;50075;49.484;11.238;2022-12-29T01:21:28;97504.66;;;11.61;100.00
63907;BME280;50075;49.484;11.238;2022-12-29T01:23:53;97496.47;;;11.24;100.00
63907;BME280;50075;49.484;11.238;2022-12-29T01:26:19;97490.88;;;10.91;100.00
63907;BME280;50075;49.484;11.238;2022-12-29T01:28:44;97496.88;;;10.93;100.00
63907;BME280;50075;49.484;11.238;2022-12-29T01:31:11;97498.59;;;11.58;100.00
63907;BME280;50075;49.484;11.238;2022-12-29T01:33:38;97486.03;;;11.27;100.00
63907;BME280;50075;49.484;11.238;2022-12-29T01:36:06;97478.69;;;10.93;100.00
63907;BME280;50075;49.484;11.238;2022-12-29T01:38:32;97487.91;;;11.76;100.00
63907;BME280;50075;49.484;11.238;2022-12-29T01:40:58;97488.59;;;11.85;100.00
63907;BME280;50075;49.484;11.238;2022-12-29T01:49:04;97473.03;;;12.34;100.00
63907;BME280;50075;49.484;11.238;2022-12-29T01:54:26;97468.00;;;11.71;100.00
63907;BME280;50075;49.484;11.238;2022-12-29T01:56:54;97461.56;;;12.43;100.00
63907;BME280;50075;49.484;11.238;2022-12-29T01:59:31;97457.34;;;11.85;100.00
63907;BME280;50075;49.484;11.238;2022-12-29T02:14:57;97433.66;;;11.48;100.00
63907;BME280;50075;49.484;11.238;2022-12-29T02:57:01;97424.66;;;11.11;100.00
63907;BME280;50075;49.484;11.238;2022-12-29T03:02:06;97417.88;;;11.55;100.00
63907;BME280;50075;49.484;11.238;2022-12-29T03:07:47;97408.22;;;11.64;100.00
63907;BME280;50075;49.484;11.238;2022-12-29T03:13:04;97414.97;;;12.26;100.00
63907;BME280;50075;49.484;11.238;2022-12-29T03:15:58;97414.53;;;11.99;100.00
63907;BME280;50075;49.484;11.238;2022-12-29T03:19:19;97404.88;;;11.55;100.00
63907;BME280;50075;49.484;11.238;2022-12-29T03:21:43;97406.25;;;11.78;100.00
63907;BME280;50075;49.484;11.238;2022-12-29T03:24:35;97400.84;;;11.37;100.00
63907;BME280;50075;49.484;11.238;2022-12-29T03:27:03;97404.41;;;12.32;100.00
63907;BME280;50075;49.484;11.238;2022-12-29T03:29:33;97414.00;;;12.30;100.00
63907;BME280;50075;49.484;11.238;2022-12-29T03:31:59;97406.41;;;12.19;100.00
63907;BME280;50075;49.484;11.238;2022-12-29T03:34:27;97403.44;;;11.37;100.00
63907;BME280;50075;49.484;11.238;2022-12-29T03:37:09;97405.09;;;11.95;100.00
63907;BME280;50075;49.484;11.238;2022-12-29T03:39:36;97404.44;;;12.29;100.00
63907;BME280;50075;49.484;11.238;2022-12-29T03:42:09;97395.44;;;11.98;100.00
63907;BME280;50075;49.484;11.238;2022-12-29T03:44:38;97402.69;;;11.82;100.00
63907;BME280;50075;49.484;11.238;2022-12-29T03:47:05;97401.25;;;12.15;100.00
63907;BME280;50075;49.484;11.238;2022-12-29T03:49:30;97390.50;;;11.83;100.00
63907;BME280;50075;49.484;11.238;2022-12-29T03:51:56;97393.47;;;12.57;100.00
63907;BME280;50075;49.484;11.238;2022-12-29T03:54:22;97385.06;;;11.97;100.00
63907;BME280;50075;49.484;11.238;2022-12-29T03:56:48;97389.78;;;11.75;100.00
63907;BME280;50075;49.484;11.238;2022-12-29T03:59:13;97389.88;;;12.19;100.00
63907;BME280;50075;49.484;11.238;2022-12-29T04:01:39;97393.13;;;12.32;100.00
63907;BME280;50075;49.484;11.238;2022-12-29T04:04:04;97404.31;;;12.37;100.00
63907;BME280;50075;49.484;11.238;2022-12-29T04:06:29;97402.88;;;12.22;100.00
63907;BME280;50075;49.484;11.238;2022-12-29T04:08:55;97407.72;;;12.41;100.00
63907;BME280;50075;49.484;11.238;2022-12-29T04:11:21;97399.69;;;12.91;100.00
63907;BME280;50075;49.484;11.238;2022-12-29T04:13:46;97397.22;;;12.44;100.00
63907;BME280;50075;49.484;11.238;2022-12-29T04:16:11;97395.88;;;12.22;100.00
63907;BME280;50075;49.484;11.238;2022-12-29T04:18:37;97404.28;;;12.39;100.00
63907;BME280;50075;49.484;11.238;2022-12-29T04:21:03;97394.63;;;12.85;100.00
63907;BME280;50075;49.484;11.238;2022-12-29T04:23:31;97396.78;;;12.21;100.00
63907;BME280;50075;49.484;11.238;2022-12-29T04:25:57;97397.19;;;12.45;100.00
63907;BME280;50075;49.484;11.238;2022-12-29T04:28:23;97395.31;;;12.05;100.00
63907;BME280;50075;49.484;11.238;2022-12-29T04:30:48;97405.91;;;12.85;100.00
63907;BME280;50075;49.484;11.238;2022-12-29T04:33:14;97396.47;;;12.39;100.00
63907;BME280;50075;49.484;11.238;2022-12-29T04:35:40;97397.56;;;11.76;100.00
63907;BME280;50075;49.484;11.238;2022-12-29T04:38:05;97397.88;;;12.09;100.00
63907;BME280;50075;49.484;11.238;2022-12-29T04:40:30;97401.91;;;12.28;100.00
63907;BME280;50075;49.484;11.238;2022-12-29T04:42:56;97404.56;;;12.24;100.00
63907;BME280;50075;49.484;11.238;2022-12-29T04:45:21;97398.47;;;12.67;100.00
63907;BME280;50075;49.484;11.238;2022-12-29T04:47:47;97403.09;;;12.09;100.00
63907;BME280;50075;49.484;11.238;2022-12-29T04:50:12;97397.00;;;12.10;100.00
63907;BME280;50075;49.484;11.238;2022-12-29T04:52:38;97395.81;;;12.70;100.00
63907;BME280;50075;49.484;11.238;2022-12-29T04:55:04;97397.94;;;12.50;100.00
63907;BME280;50075;49.484;11.238;2022-12-29T04:57:30;97390.22;;;12.00;100.00
63907;BME280;50075;49.484;11.238;2022-12-29T04:59:56;97389.16;;;11.62;100.00
63907;BME280;50075;49.484;11.238;2022-12-29T05:02:21;97386.28;;;12.26;100.00
63907;BME280;50075;49.484;11.238;2022-12-29T05:04:47;97382.00;;;12.22;100.00
63907;BME280;50075;49.484;11.238;2022-12-29T05:07:13;97388.06;;;12.65;100.00
63907;BME280;50075;49.484;11.238;2022-12-29T05:09:39;97395.38;;;12.49;100.00
63907;BME280;50075;49.484;11.238;2022-12-29T05:12:04;97384.97;;;12.47;100.00
63907;BME280;50075;49.484;11.238;2022-12-29T05:14:30;97386.25;;;12.28;100.00
63907;BME280;50075;49.484;11.238;2022-12-29T05:16:55;97392.03;;;12.42;100.00
63907;BME280;50075;49.484;11.238;2022-12-29T05:19:21;97390.06;;;12.09;100.00
63907;BME280;50075;49.484;11.238;2022-12-29T05:21:46;97387.25;;;12.20;100.00
63907;BME280;50075;49.484;11.238;2022-12-29T05:24:11;97403.94;;;12.56;100.00
63907;BME280;50075;49.484;11.238;2022-12-29T05:26:37;97398.47;;;12.68;100.00
63907;BME280;50075;49.484;11.238;2022-12-29T05:29:02;97400.34;;;12.61;100.00
63907;BME280;50075;49.484;11.238;2022-12-29T05:31:28;97390.91;;;12.54;100.00
63907;BME280;50075;49.484;11.238;2022-12-29T05:33:53;97400.53;;;12.93;100.00
63907;BME280;50075;49.484;11.238;2022-12-29T05:36:19;97394.31;;;12.15;100.00
63907;BME280;50075;49.484;11.238;2022-12-29T05:38:44;97399.31;;;12.69;100.00
63907;BME280;50075;49.484;11.238;2022-12-29T05:41:10;97400.72;;;13.61;100.00
63907;BME280;50075;49.484;11.238;2022-12-29T05:43:35;97392.94;;;12.41;100.00
63907;BME280;50075;49.484;11.238;2022-12-29T05:46:01;97386.44;;;12.59;100.00
63907;BME280;50075;49.484;11.238;2022-12-29T05:48:27;97383.03;;;12.97;100.00
63907;BME280;50075;49.484;11.238;2022-12-29T05:50:52;97390.44;;;12.76;100.00
63907;BME280;50075;49.484;11.238;2022-12-29T05:53:18;97383.97;;;12.55;100.00
63907;BME280;50075;49.484;11.238;2022-12-29T05:55:46;97381.75;;;12.36;100.00
63907;BME280;50075;49.484;11.238;2022-12-29T05:58:12;97394.13;;;12.24;100.00
63907;BME280;50075;49.484;11.238;2022-12-29T06:00:37;97391.19;;;11.94;100.00
63907;BME280;50075;49.484;11.238;2022-12-29T06:03:03;97395.34;;;12.03;100.00
63907;BME280;50075;49.484;11.238;2022-12-29T06:05:29;97389.75;;;11.24;100.00
63907;BME280;50075;49.484;11.238;2022-12-29T06:07:54;97401.03;;;11.78;100.00
63907;BME280;50075;49.484;11.238;2022-12-29T06:10:19;97407.00;;;11.31;100.00
63907;BME280;50075;49.484;11.238;2022-12-29T06:12:45;97405.75;;;12.06;100.00
63907;BME280;50075;49.484;11.238;2022-12-29T06:15:11;97404.22;;;12.40;100.00
63907;BME280;50075;49.484;11.238;2022-12-29T06:17:36;97401.91;;;11.77;100.00
63907;BME280;50075;49.484;11.238;2022-12-29T06:20:02;97406.78;;;12.43;100.00
63907;BME280;50075;49.484;11.238;2022-12-29T06:22:28;97400.09;;;11.30;100.00
63907;BME280;50075;49.484;11.238;2022-12-29T06:24:53;97400.50;;;11.57;100.00
63907;BME280;50075;49.484;11.238;2022-12-29T06:27:18;97400.59;;;11.51;100.00
63907;BME280;50075;49.484;11.238;2022-12-29T06:29:44;97403.06;;;11.04;100.00
63907;BME280;50075;49.484;11.238;2022-12-29T06:32:09;97397.56;;;11.24;100.00
63907;BME280;50075;49.484;11.238;2022-12-29T06:34:35;97392.00;;;10.91;100.00
63907;BME280;50075;49.484;11.238;2022-12-29T06:37:00;97403.84;;;11.66;100.00
63907;BME280;50075;49.484;11.238;2022-12-29T06:39:26;97399.94;;;11.38;100.00
63907;BME280;50075;49.484;11.238;2022-12-29T06:41:52;97384.47;;;11.30;100.00
63907;BME280;50075;49.484;11.238;2022-12-29T06:44:20;97398.66;;;11.09;100.00
63907;BME280;50075;49.484;11.238;2022-12-29T06:46:45;97393.53;;;11.04;100.00
63907;BME280;50075;49.484;11.238;2022-12-29T06:49:11;97389.41;;;10.91;100.00
63907;BME280;50075;49.484;11.238;2022-12-29T06:51:36;97399.63;;;11.58;100.00
63907;BME280;50075;49.484;11.238;2022-12-29T06:54:02;97401.06;;;11.23;100.00
63907;BME280;50075;49.484;11.238;2022-12-29T06:56:27;97405.63;;;11.07;100.00
63907;BME280;50075;49.484;11.238;2022-12-29T06:58:52;97418.38;;;11.79;100.00
63907;BME280;50075;49.484;11.238;2022-12-29T07:01:18;97411.84;;;12.07;100.00
63907;BME280;50075;49.484;11.238;2022-12-29T07:03:43;97427.06;;;11.80;100.00
63907;BME280;50075;49.484;11.238;2022-12-29T07:06:08;97424.56;;;11.72;100.00
63907;BME280;50075;49.484;11.238;2022-12-29T07:08:34;97413.41;;;11.64;100.00
63907;BME280;50075;49.484;11.238;2022-12-29T07:10:59;97409.38;;;12.45;100.00
63907;BME280;50075;49.484;11.238;2022-12-29T07:13:25;97407.91;;;11.29;100.00
63907;BME280;50075;49.484;11.238;2022-12-29T07:15:50;97424.50;;;10.57;100.00
63907;BME280;50075;49.484;11.238;2022-12-29T07:18:15;97424.66;;;10.41;100.00
63907;BME280;50075;49.484;11.238;2022-12-29T07:20:41;97424.66;;;11.12;100.00
63907;BME280;50075;49.484;11.238;2022-12-29T07:23:06;97421.97;;;11.17;100.00
63907;BME280;50075;49.484;11.238;2022-12-29T07:25:32;97413.44;;;10.36;100.00
63907;BME280;50075;49.484;11.238;2022-12-29T07:27:57;97414.53;;;10.20;100.00
63907;BME280;50075;49.484;11.238;2022-12-29T07:30:23;97424.00;;;10.24;100.00
63907;BME280;50075;49.484;11.238;2022-12-29T07:32:48;97428.13;;;10.42;100.00
63907;BME280;50075;49.484;11.238;2022-12-29T07:35:13;97425.75;;;10.20;100.00
63907;BME280;50075;49.484;11.238;2022-12-29T07:37:39;97424.81;;;10.29;100.00
63907;BME280;50075;49.484;11.238;2022-12-29T07:40:04;97440.84;;;10.68;100.00
63907;BME280;50075;49.484;11.238;2022-12-29T07:42:31;97434.34;;;10.28;100.00
63907;BME280;50075;49.484;11.238;2022-12-29T07:44:56;97445.56;;;11.04;100.00
63907;BME280;50075;49.484;11.238;2022-12-29T07:47:21;97430.28;;;10.81;100.00
63907;BME280;50075;49.484;11.238;2022-12-29T07:49:47;97426.66;;;10.91;100.00
63907;BME280;50075;49.484;11.238;2022-12-29T07:52:12;97427.78;;;9.93;95.44
63907;BME280;50075;49.484;11.238;2022-12-29T07:54:37;97431.06;;;10.11;95.88
63907;BME280;50075;49.484;11.238;2022-12-29T07:57:04;97439.97;;;9.83;94.62
63907;BME280;50075;49.484;11.238;2022-12-29T07:59:29;97441.88;;;10.57;96.97
63907;BME280;50075;49.484;11.238;2022-12-29T08:01:55;97439.78;;;10.82;97.86
63907;BME280;50075;49.484;11.238;2022-12-29T08:04:21;97437.59;;;10.49;93.00
63907;BME280;50075;49.484;11.238;2022-12-29T08:06:46;97440.69;;;10.79;84.75
63907;BME280;50075;49.484;11.238;2022-12-29T08:09:11;97441.94;;;10.49;63.32
63907;BME280;50075;49.484;11.238;2022-12-29T08:11:37;97433.63;;;11.49;75.42
63907;BME280;50075;49.484;11.238;2022-12-29T08:14:03;97424.66;;;11.69;63.98
63907;BME280;50075;49.484;11.238;2022-12-29T08:16:29;97426.72;;;11.46;75.32
63907;BME280;50075;49.484;11.238;2022-12-29T08:18:54;97418.91;;;11.48;66.87
63907;BME280;50075;49.484;11.238;2022-12-29T08:21:19;97429.78;;;11.70;76.43
63907;BME280;50075;49.484;11.238;2022-12-29T08:23:45;97432.84;;;11.96;78.74
63907;BME280;50075;49.484;11.238;2022-12-29T08:26:10;97432.53;;;12.15;69.06
63907;BME280;50075;49.484;11.238;2022-12-29T08:28:36;97424.16;;;11.95;73.70
63907;BME280;50075;49.484;11.238;2022-12-29T08:31:02;97439.03;;;11.37;64.59
63907;BME280;50075;49.484;11.238;2022-12-29T08:33:28;97441.06;;;11.16;65.02
63907;BME280;50075;49.484;11.238;2022-12-29T08:36:04;97436.53;;;11.84;68.41
63907;BME280;50075;49.484;11.238;2022-12-29T08:38:30;97430.09;;;11.53;64.67
63907;BME280;50075;49.484;11.238;2022-12-29T08:40:57;97429.94;;;11.63;64.27
63907;BME280;50075;49.484;11.238;2022-12-29T08:43:23;97431.06;;;12.47;84.69
63907;BME280;50075;49.484;11.238;2022-12-29T08:45:49;97435.97;;;12.62;69.53
63907;BME280;50075;49.484;11.238;2022-12-29T08:48:14;97433.34;;;12.18;65.62
63907;BME280;50075;49.484;11.238;2022-12-29T08:50:43;97424.34;;;12.33;65.55
63907;BME280;50075;49.484;11.238;2022-12-29T08:53:09;97419.31;;;12.24;66.53
63907;BME280;50075;49.484;11.238;2022-12-29T08:55:35;97445.00;;;12.44;61.08
63907;BME280;50075;49.484;11.238;2022-12-29T08:58:00;97432.72;;;12.92;62.57
63907;BME280;50075;49.484;11.238;2022-12-29T09:00:26;97425.22;;;13.18;65.45
63907;BME280;50075;49.484;11.238;2022-12-29T09:02:51;97428.25;;;12.58;58.28
63907;BME280;50075;49.484;11.238;2022-12-29T09:05:16;97424.50;;;13.11;58.08
63907;BME280;50075;49.484;11.238;2022-12-29T09:07:42;97425.72;;;12.96;59.15
63907;BME280;50075;49.484;11.238;2022-12-29T09:10:07;97414.09;;;13.09;58.72
63907;BME280;50075;49.484;11.238;2022-12-29T09:12:33;97420.94;;;13.15;59.45
63907;BME280;50075;49.484;11.238;2022-12-29T09:14:58;97430.34;;;13.95;71.46
63907;BME280;50075;49.484;11.238;2022-12-29T09:17:24;97428.69;;;13.91;59.20
63907;BME280;50075;49.484;11.238;2022-12-29T09:20:09;97420.31;;;14.11;64.00
63907;BME280;50075;49.484;11.238;2022-12-29T09:22:35;97422.88;;;13.43;55.72
63907;BME280;50075;49.484;11.238;2022-12-29T09:25:01;97423.38;;;13.96;58.27
63907;BME280;50075;49.484;11.238;2022-12-29T09:27:26;97420.91;;;13.89;54.59
63907;BME280;50075;49.484;11.238;2022-12-29T09:29:51;97427.94;;;14.21;56.95
63907;BME280;50075;49.484;11.238;2022-12-29T09:32:17;97426.13;;;14.23;54.69
63907;BME280;50075;49.484;11.238;2022-12-29T09:34:42;97412.19;;;14.54;58.44
63907;BME280;50075;49.484;11.238;2022-12-29T09:37:08;97433.50;;;14.08;55.82
63907;BME280;50075;49.484;11.238;2022-12-29T09:39:33;97427.69;;;14.30;58.09
63907;BME280;50075;49.484;11.238;2022-12-29T09:42:10;97416.66;;;14.18;51.51
63907;BME280;50075;49.484;11.238;2022-12-29T09:47:21;97421.44;;;14.02;55.24
63907;BME280;50075;49.484;11.238;2022-12-29T09:49:59;97417.72;;;14.11;52.55
63907;BME280;50075;49.484;11.238;2022-12-29T09:52:32;97422.97;;;13.40;53.74
63907;BME280;50075;49.484;11.238;2022-12-29T09:55:09;97412.63;;;13.72;55.33
63907;BME280;50075;49.484;11.238;2022-12-29T09:57:46;97414.78;;;13.56;55.32
63907;BME280;50075;49.484;11.238;2022-12-29T10:00:16;97412.00;;;13.24;60.63
63907;BME280;50075;49.484;11.238;2022-12-29T10:03:04;97417.41;;;13.16;53.90
63907;BME280;50075;49.484;11.238;2022-12-29T10:05:53;97408.78;;;13.14;53.42
63907;BME280;50075;49.484;11.238;2022-12-29T10:25:12;97409.34;;;13.63;58.58
63907;BME280;50075;49.484;11.238;2022-12-29T10:27:40;97401.81;;;13.13;55.29
63907;BME280;50075;49.484;11.238;2022-12-29T10:30:12;97387.19;;;13.44;61.37
63907;BME280;50075;49.484;11.238;2022-12-29T10:35:18;97397.50;;;13.12;58.82
63907;BME280;50075;49.484;11.238;2022-12-29T10:38:02;97389.84;;;13.04;56.65
63907;BME280;50075;49.484;11.238;2022-12-29T10:40:38;97385.25;;;13.53;61.90
63907;BME280;50075;49.484;11.238;2022-12-29T10:46:18;97378.06;;;13.24;59.04
63907;BME280;50075;49.484;11.238;2022-12-29T10:48:44;97379.13;;;13.17;55.31
63907;BME280;50075;49.484;11.238;2022-12-29T10:53:48;97381.75;;;12.77;57.40
63907;BME280;50075;49.484;11.238;2022-12-29T10:58:54;97364.34;;;13.15;58.19
63907;BME280;50075;49.484;11.238;2022-12-29T11:01:24;97372.66;;;12.94;57.43
63907;BME280;50075;49.484;11.238;2022-12-29T11:04:24;97367.53;;;13.28;60.06
63907;BME280;50075;49.484;11.238;2022-12-29T11:06:54;97366.63;;;13.66;59.68
63907;BME280;50075;49.484;11.238;2022-12-29T11:09:26;97357.00;;;13.68;57.96
63907;BME280;50075;49.484;11.238;2022-12-29T11:11:53;97355.06;;;13.75;63.36
63907;BME280;50075;49.484;11.238;2022-12-29T11:14:20;97357.97;;;13.64;57.92
63907;BME280;50075;49.484;11.238;2022-12-29T11:16:57;97366.22;;;13.82;57.01
63907;BME280;50075;49.484;11.238;2022-12-29T11:19:25;97350.78;;;13.72;59.30
63907;BME280;50075;49.484;11.238;2022-12-29T11:21:51;97354.06;;;13.80;59.04
63907;BME280;50075;49.484;11.238;2022-12-29T11:24:24;97361.09;;;14.10;63.79
63907;BME280;50075;49.484;11.238;2022-12-29T11:26:55;97370.78;;;14.38;55.32
63907;BME280;50075;49.484;11.238;2022-12-29T11:29:41;97361.34;;;14.32;53.98
63907;BME280;50075;49.484;11.238;2022-12-29T11:32:27;97369.91;;;14.38;53.27
63907;BME280;50075;49.484;11.238;2022-12-29T11:34:55;97370.88;;;14.65;53.82
63907;BME280;50075;49.484;11.238;2022-12-29T11:39:56;97375.41;;;14.28;54.61
63907;BME280;50075;49.484;11.238;2022-12-29T11:45:05;97371.03;;;13.97;54.54
63907;BME280;50075;49.484;11.238;2022-12-29T11:47:32;97366.81;;;13.93;55.24
63907;BME280;50075;49.484;11.238;2022-12-29T11:50:04;97377.09;;;14.31;60.37
63907;BME280;50075;49.484;11.238;2022-12-29T11:52:35;97370.19;;;14.28;55.53
63907;BME280;50075;49.484;11.238;2022-12-29T11:55:05;97368.22;;;14.05;56.43
63907;BME280;50075;49.484;11.238;2022-12-29T11:57:33;97367.59;;;13.95;55.77
63907;BME280;50075;49.484;11.238;2022-12-29T12:00:02;97368.19;;;14.38;55.07
63907;BME280;50075;49.484;11.238;2022-12-29T12:08:14;97361.09;;;14.10;55.50
63907;BME280;50075;49.484;11.238;2022-12-29T12:10:46;97355.91;;;14.40;56.36
63907;BME280;50075;49.484;11.238;2022-12-29T12:13:22;97350.75;;;14.07;55.35
63907;BME280;50075;49.484;11.238;2022-12-29T12:16:14;97357.16;;;14.27;56.12
63907;BME280;50075;49.484;11.238;2022-12-29T12:19:01;97354.97;;;14.11;60.32
63907;BME280;50075;49.484;11.238;2022-12-29T12:21:38;97355.72;;;14.16;63.98
63907;BME280;50075;49.484;11.238;2022-12-29T12:29:45;97355.72;;;14.47;54.87
63907;BME280;50075;49.484;11.238;2022-12-29T12:32:22;97349.66;;;14.44;55.75
63907;BME280;50075;49.484;11.238;2022-12-29T12:34:48;97357.00;;;14.33;55.90
63907;BME280;50075;49.484;11.238;2022-12-29T12:40:09;97352.25;;;16.35;100.00
63907;BME280;50075;49.484;11.238;2022-12-29T12:45:55;97350.53;;;17.04;54.36
63907;BME280;50075;49.484;11.238;2022-12-29T12:48:56;97337.31;;;18.32;50.70
63907;BME280;50075;49.484;11.238;2022-12-29T12:54:55;97346.25;;;18.09;47.73
63907;BME280;50075;49.484;11.238;2022-12-29T13:00:08;97357.72;;;18.06;47.70
63907;BME280;50075;49.484;11.238;2022-12-29T13:05:41;97341.66;;;17.92;46.85
63907;BME280;50075;49.484;11.238;2022-12-29T13:11:08;97350.09;;;18.21;45.74
63907;BME280;50075;49.484;11.238;2022-12-29T13:16:31;97364.56;;;18.70;44.60
63907;BME280;50075;49.484;11.238;2022-12-29T13:22:10;97351.25;;;17.30;46.95
63907;BME280;50075;49.484;11.238;2022-12-29T13:28:06;97354.16;;;17.87;46.34
63907;BME280;50075;49.484;11.238;2022-12-29T13:38:43;97353.47;;;17.83;46.95
63907;BME280;50075;49.484;11.238;2022-12-29T13:41:18;97362.22;;;18.64;45.54
63907;BME280;50075;49.484;11.238;2022-12-29T13:43:47;97365.06;;;17.56;46.35
63907;BME280;50075;49.484;11.238;2022-12-29T13:46:21;97363.50;;;17.94;46.79
63907;BME280;50075;49.484;11.238;2022-12-29T13:49:02;97365.72;;;17.62;47.17
63907;BME280;50075;49.484;11.238;2022-12-29T13:51:30;97364.28;;;17.96;47.04
63907;BME280;50075;49.484;11.238;2022-12-29T13:59:47;97373.09;;;15.89;49.62
63907;BME280;50075;49.484;11.238;2022-12-29T14:04:59;97378.38;;;14.48;54.12
63907;BME280;50075;49.484;11.238;2022-12-29T14:07:25;97383.63;;;14.46;55.11
63907;BME280;50075;49.484;11.238;2022-12-29T14:09:53;97384.22;;;14.26;56.27
63907;BME280;50075;49.484;11.238;2022-12-29T14:15:14;97386.16;;;13.86;57.71
63907;BME280;50075;49.484;11.238;2022-12-29T14:18:00;97388.69;;;13.89;58.71
63907;BME280;50075;49.484;11.238;2022-12-29T14:20:27;97393.28;;;13.79;59.38
63907;BME280;50075;49.484;11.238;2022-12-29T14:23:01;97378.19;;;13.56;59.47
63907;BME280;50075;49.484;11.238;2022-12-29T14:28:30;97377.06;;;13.30;60.44
63907;BME280;50075;49.484;11.238;2022-12-29T14:33:35;97391.47;;;13.10;61.54
63907;BME280;50075;49.484;11.238;2022-12-29T14:38:48;97369.34;;;13.25;62.50
63907;BME280;50075;49.484;11.238;2022-12-29T14:43:54;97370.66;;;13.07;65.57
63907;BME280;50075;49.484;11.238;2022-12-29T14:46:20;97376.78;;;13.06;65.30
63907;BME280;50075;49.484;11.238;2022-12-29T14:48:45;97378.03;;;12.87;66.49
63907;BME280;50075;49.484;11.238;2022-12-29T14:51:18;97378.34;;;12.73;66.17
63907;BME280;50075;49.484;11.238;2022-12-29T14:53:50;97388.81;;;12.72;67.30
63907;BME280;50075;49.484;11.238;2022-12-29T14:56:18;97384.06;;;12.89;67.96
63907;BME280;50075;49.484;11.238;2022-12-29T15:01:19;97400.03;;;12.77;67.63
63907;BME280;50075;49.484;11.238;2022-12-29T15:03:53;97394.66;;;12.83;68.72
63907;BME280;50075;49.484;11.238;2022-12-29T15:06:29;97389.97;;;12.98;69.01
63907;BME280;50075;49.484;11.238;2022-12-29T15:09:04;97387.69;;;12.84;68.56
63907;BME280;50075;49.484;11.238;2022-12-29T15:14:29;97391.16;;;12.83;69.15
63907;BME280;50075;49.484;11.238;2022-12-29T15:16:55;97403.25;;;12.87;69.53
63907;BME280;50075;49.484;11.238;2022-12-29T15:19:21;97402.69;;;12.74;68.42
63907;BME280;50075;49.484;11.238;2022-12-29T15:21:48;97409.47;;;12.81;70.53
63907;BME280;50075;49.484;11.238;2022-12-29T15:24:14;97411.91;;;12.91;70.17
63907;BME280;50075;49.484;11.238;2022-12-29T15:26:45;97409.28;;;12.91;71.59
63907;BME280;50075;49.484;11.238;2022-12-29T15:29:31;97411.78;;;12.95;70.40
63907;BME280;50075;49.484;11.238;2022-12-29T15:32:01;97413.88;;;12.79;69.64
63907;BME280;50075;49.484;11.238;2022-12-29T15:34:35;97410.84;;;12.98;74.23
63907;BME280;50075;49.484;11.238;2022-12-29T15:37:06;97413.78;;;12.84;70.33
63907;BME280;50075;49.484;11.238;2022-12-29T15:39:32;97413.63;;;12.92;71.67
63907;BME280;50075;49.484;11.238;2022-12-29T15:42:34;97407.91;;;12.74;70.29
63907;BME280;50075;49.484;11.238;2022-12-29T15:44:56;97404.63;;;12.64;69.41
63907;BME280;50075;49.484;11.238;2022-12-29T15:47:26;97401.81;;;12.73;70.43
63907;BME280;50075;49.484;11.238;2022-12-29T15:50:05;97399.31;;;12.69;70.53
63907;BME280;50075;49.484;11.238;2022-12-29T15:52:33;97409.38;;;12.45;70.11
63907;BME280;50075;49.484;11.238;2022-12-29T15:54:59;97403.16;;;12.52;73.82
63907;BME280;50075;49.484;11.238;2022-12-29T15:57:30;97400.75;;;12.41;70.93